Weather observations for the past three days for
Torrance, Zamperini Field Airport
Metric (Imperial)
Date Time (pdt) Wind (kph) Vis. (km) Weather Sky Cond. Temperature (ºC) Relative Humidity Wind Chill (°C) Heat Index (°C) Pressure Precipitation (cm)
Air Dwpt 6 hour altimeter (cm) sea level (mb) 1 hr 3 hr 6 hr
Max. Min.
05 19:50 SW 7 16.09 Partly Cloudy SCT070 16 11 72% 76.15 0.0
05 18:50 SW 13 16.09 Partly Cloudy SCT070 17 9 60% 76.1 0.0
05 17:47 W 13 16.09 Partly Cloudy SCT070 18 9 56% 76.1 0.0
05 16:50 W 17 16.09 Partly Cloudy FEW010 SCT070 18 11 64% 76.1 0.0
05 15:47 SW 20 16.09 Partly Cloudy SCT060 19 8 49% 76.1 0.0
05 14:47 W 19 16.09 Partly Cloudy SCT060 19 9 52% 76.12 0.0
05 13:50 SW 24 16.09 Partly Cloudy SCT075 20 8 46% 76.15 0.0
05 12:47 W 19 16.09 Partly Cloudy SCT075 19 10 56% 76.15 0.0
05 11:47 W 22 G 33 16.09 Mostly Cloudy BKN075 18 9 56% 76.17 0.0
05 10:53 SW 17 16.09 Partly Cloudy FEW019 SCT060 17 11 68% 76.17 0.0
05 09:49 SW 17 16.09 Partly Cloudy FEW019 SCT060 17 11 68% 76.12 0.0
05 08:49 SW 19 16.09 Partly Cloudy FEW019 SCT060 17 11 68% 76.1 0.0
05 07:59 W 19 16.09 Partly Cloudy FEW010 SCT019 SCT060 16 11 72% 76.07 0.0
05 06:57 W 6 16.09 Mostly Cloudy FEW010 SCT023 BKN075 14 11 82% 76.05 0.0
04 19:47 S 17 16.09 Overcast SCT022 OVC075 16 12 77% 76.12 0.0
04 18:49 SW 19 16.09 Overcast FEW022 OVC075 17 11 68% 76.12 0.0
04 17:47 SW 19 16.09 Overcast FEW022 OVC075 17 11 68% 76.12 0.0
04 16:50 SW 22 16.09 Overcast SCT043 OVC085 18 11 64% 76.15 0.0
04 15:48 SW 26 G 39 16.09 Overcast SCT041 OVC085 19 11 60% 76.12 0.0
04 14:47 SW 30 16.09 Mostly Cloudy SCT041 BKN160 19 11 60% 76.17 0.0
04 13:47 SW 24 16.09 Mostly Cloudy SCT032 BKN140 20 11 56% 76.2 0.0
04 12:47 SW 22 16.09 Mostly Cloudy SCT032 BKN140 21 10 50% 76.2 0.0
04 11:47 SW 22 G 35 16.09 Overcast SCT032 OVC140 20 10 53% 76.23 0.0
04 10:50 W 24 G 33 16.09 Partly Cloudy FEW025 SCT070 19 9 52% 76.23 0.0
04 09:47 W 17 16.09 Partly Cloudy FEW025 SCT070 18 10 60% 76.2 0.0
04 08:47 W 17 16.09 Mostly Cloudy FEW025 BKN070 17 11 68% 76.17 0.0
04 07:47 W 17 16.09 Mostly Cloudy FEW025 BKN070 16 11 72% 76.15 0.0
04 06:47 W 19 16.09 Mostly Cloudy FEW015 BKN060 14 10 77% 76.12 0.0
03 19:47 W 20 16.09 Overcast FEW020 OVC050 16 11 72% 76.07 0.0
03 18:48 W 24 16.09 Overcast FEW018 OVC050 16 11 72% 76.05 0.0
03 17:51 W 24 16.09 Mostly Cloudy SCT024 BKN050 17 11 68% 76 0.0
03 15:47 W 24 16.09 Mostly Cloudy SCT025 BKN050 19 10 56% 76.05 0.0
03 14:47 W 26 16.09 Mostly Cloudy BKN037 18 10 60% 76.05 0.0
03 13:59 W 30 16.09 Mostly Cloudy BKN037 19 9 52% 76.05 0.0
03 12:47 W 20 16.09 Mostly Cloudy FEW031 BKN037 18 9 56% 76.07 0.0
03 11:56 W 20 16.09 Mostly Cloudy FEW024 BKN031 19 9 52% 76.12 0.0
03 10:47 SW 15 16.09 Overcast OVC027 18 9 56% 76.12 0.0
03 09:57 S 9 16.09 Overcast SCT017 OVC038 18 10 60% 76.1 0.0
03 08:56 SW 9 16.09 Overcast SCT017 OVC025 17 11 68% 76.07 0.0
03 07:54 Calm 16.09 Overcast SCT018 OVC025 16 12 77% 76.05 0.0
03 06:52 W 7 16.09 Overcast SCT015 OVC025 15 12 82% 76 0.0
Date Time (pdt) Wind (kph) Vis. (km) Weather Sky Cond. Air Dwpt Max. Min. Relative Humidity Wind Chill (°C) Heat Index (°C) altimeter (cm) sea level (mb) 1 hr 3 hr 6 hr
6 hour
Temperature (ºC) Pressure Precipitation (cm)